sensor_id;sensor_type;location;lat;lon;timestamp;temperature;humidity
26621;DHT22;14253;44.840;10.444;2024-03-02T00:00:11;10.90;99.90
26621;DHT22;14253;44.840;10.444;2024-03-02T00:02:43;10.90;99.90
26621;DHT22;14253;44.840;10.444;2024-03-02T00:05:18;10.90;99.90
26621;DHT22;14253;44.840;10.444;2024-03-02T00:07:47;10.90;99.90
26621;DHT22;14253;44.840;10.444;2024-03-02T00:10:19;10.90;99.90
26621;DHT22;14253;44.840;10.444;2024-03-02T00:12:47;10.90;99.90
26621;DHT22;14253;44.840;10.444;2024-03-02T00:17:56;10.90;99.90
26621;DHT22;14253;44.840;10.444;2024-03-02T00:20:23;10.90;99.90
26621;DHT22;14253;44.840;10.444;2024-03-02T00:22:50;10.90;99.90
26621;DHT22;14253;44.840;10.444;2024-03-02T00:25:16;10.90;99.90
26621;DHT22;14253;44.840;10.444;2024-03-02T00:27:42;10.90;99.90
26621;DHT22;14253;44.840;10.444;2024-03-02T00:30:41;10.90;99.90
26621;DHT22;14253;44.840;10.444;2024-03-02T00:33:12;10.90;99.90
26621;DHT22;14253;44.840;10.444;2024-03-02T00:35:38;10.90;99.90
26621;DHT22;14253;44.840;10.444;2024-03-02T00:38:06;10.90;99.90
26621;DHT22;14253;44.840;10.444;2024-03-02T00:40:32;10.80;99.90
26621;DHT22;14253;44.840;10.444;2024-03-02T00:42:59;10.90;99.90
26621;DHT22;14253;44.840;10.444;2024-03-02T00:45:25;10.90;99.90
26621;DHT22;14253;44.840;10.444;2024-03-02T00:47:52;10.90;99.90
26621;DHT22;14253;44.840;10.444;2024-03-02T00:50:18;10.80;99.90
26621;DHT22;14253;44.840;10.444;2024-03-02T00:52:46;10.80;99.90
26621;DHT22;14253;44.840;10.444;2024-03-02T00:55:14;10.80;99.90
26621;DHT22;14253;44.840;10.444;2024-03-02T00:57:40;10.80;99.90
26621;DHT22;14253;44.840;10.444;2024-03-02T01:00:06;10.80;99.90
26621;DHT22;14253;44.840;10.444;2024-03-02T01:02:36;10.80;99.90
26621;DHT22;14253;44.840;10.444;2024-03-02T01:05:02;10.80;99.90
26621;DHT22;14253;44.840;10.444;2024-03-02T01:07:27;10.70;99.90
26621;DHT22;14253;44.840;10.444;2024-03-02T01:09:53;10.80;99.90
26621;DHT22;14253;44.840;10.444;2024-03-02T01:12:19;10.80;99.90
26621;DHT22;14253;44.840;10.444;2024-03-02T01:14:45;10.70;99.90
26621;DHT22;14253;44.840;10.444;2024-03-02T01:17:11;10.80;99.90
26621;DHT22;14253;44.840;10.444;2024-03-02T01:19:37;10.70;99.90
26621;DHT22;14253;44.840;10.444;2024-03-02T01:22:04;10.70;99.90
26621;DHT22;14253;44.840;10.444;2024-03-02T01:24:30;10.70;99.90
26621;DHT22;14253;44.840;10.444;2024-03-02T01:26:56;10.70;99.90
26621;DHT22;14253;44.840;10.444;2024-03-02T01:29:22;10.70;99.90
26621;DHT22;14253;44.840;10.444;2024-03-02T01:31:48;10.70;99.90
26621;DHT22;14253;44.840;10.444;2024-03-02T01:34:14;10.70;99.90
26621;DHT22;14253;44.840;10.444;2024-03-02T01:36:40;10.70;99.90
26621;DHT22;14253;44.840;10.444;2024-03-02T01:39:06;10.60;99.90
26621;DHT22;14253;44.840;10.444;2024-03-02T01:41:34;10.60;99.90
26621;DHT22;14253;44.840;10.444;2024-03-02T01:44:00;10.60;99.90
26621;DHT22;14253;44.840;10.444;2024-03-02T01:46:26;10.60;99.90
26621;DHT22;14253;44.840;10.444;2024-03-02T01:48:52;10.60;99.90
26621;DHT22;14253;44.840;10.444;2024-03-02T01:51:18;10.60;99.90
26621;DHT22;14253;44.840;10.444;2024-03-02T01:53:44;10.60;99.90
26621;DHT22;14253;44.840;10.444;2024-03-02T01:56:10;10.60;99.90
26621;DHT22;14253;44.840;10.444;2024-03-02T01:58:36;10.60;99.90
26621;DHT22;14253;44.840;10.444;2024-03-02T02:01:03;10.60;99.90
26621;DHT22;14253;44.840;10.444;2024-03-02T02:03:29;10.60;99.90
26621;DHT22;14253;44.840;10.444;2024-03-02T02:05:54;10.60;99.90
26621;DHT22;14253;44.840;10.444;2024-03-02T02:08:20;10.60;99.90
26621;DHT22;14253;44.840;10.444;2024-03-02T02:10:46;10.60;99.90
26621;DHT22;14253;44.840;10.444;2024-03-02T02:13:12;10.60;99.90
26621;DHT22;14253;44.840;10.444;2024-03-02T02:15:38;10.70;99.90
26621;DHT22;14253;44.840;10.444;2024-03-02T02:18:04;10.70;99.90
26621;DHT22;14253;44.840;10.444;2024-03-02T02:20:30;10.60;99.90
26621;DHT22;14253;44.840;10.444;2024-03-02T02:23:01;10.60;99.90
26621;DHT22;14253;44.840;10.444;2024-03-02T02:25:28;10.60;99.90
26621;DHT22;14253;44.840;10.444;2024-03-02T02:27:55;10.60;99.90
26621;DHT22;14253;44.840;10.444;2024-03-02T02:30:24;10.60;99.90
26621;DHT22;14253;44.840;10.444;2024-03-02T02:32:50;10.60;99.90
26621;DHT22;14253;44.840;10.444;2024-03-02T02:35:16;10.60;99.90
26621;DHT22;14253;44.840;10.444;2024-03-02T02:37:43;10.60;99.90
26621;DHT22;14253;44.840;10.444;2024-03-02T02:40:09;10.50;99.90
26621;DHT22;14253;44.840;10.444;2024-03-02T02:42:35;10.50;99.90
26621;DHT22;14253;44.840;10.444;2024-03-02T02:45:01;10.50;99.90
26621;DHT22;14253;44.840;10.444;2024-03-02T02:47:27;10.50;99.90
26621;DHT22;14253;44.840;10.444;2024-03-02T02:49:55;10.50;99.90
26621;DHT22;14253;44.840;10.444;2024-03-02T02:52:21;10.50;99.90
26621;DHT22;14253;44.840;10.444;2024-03-02T02:54:47;10.50;99.90
26621;DHT22;14253;44.840;10.444;2024-03-02T02:57:13;10.40;99.90
26621;DHT22;14253;44.840;10.444;2024-03-02T02:59:39;10.50;99.90
26621;DHT22;14253;44.840;10.444;2024-03-02T03:02:05;10.40;99.90
26621;DHT22;14253;44.840;10.444;2024-03-02T03:04:32;10.40;99.90
26621;DHT22;14253;44.840;10.444;2024-03-02T03:06:58;10.40;99.90
26621;DHT22;14253;44.840;10.444;2024-03-02T03:09:24;10.40;99.90
26621;DHT22;14253;44.840;10.444;2024-03-02T03:11:50;10.40;99.90
26621;DHT22;14253;44.840;10.444;2024-03-02T03:14:16;10.40;99.90
26621;DHT22;14253;44.840;10.444;2024-03-02T03:16:41;10.40;99.90
26621;DHT22;14253;44.840;10.444;2024-03-02T03:19:07;10.40;99.90
26621;DHT22;14253;44.840;10.444;2024-03-02T03:21:34;10.30;99.90
26621;DHT22;14253;44.840;10.444;2024-03-02T03:24:00;10.30;99.90
26621;DHT22;14253;44.840;10.444;2024-03-02T03:26:26;10.30;99.90
26621;DHT22;14253;44.840;10.444;2024-03-02T03:28:52;10.30;99.90
26621;DHT22;14253;44.840;10.444;2024-03-02T03:31:17;10.30;99.90
26621;DHT22;14253;44.840;10.444;2024-03-02T03:33:43;10.30;99.90
26621;DHT22;14253;44.840;10.444;2024-03-02T03:36:09;10.30;99.90
26621;DHT22;14253;44.840;10.444;2024-03-02T03:38:35;10.30;99.90
26621;DHT22;14253;44.840;10.444;2024-03-02T03:41:01;10.30;99.90
26621;DHT22;14253;44.840;10.444;2024-03-02T03:43:27;10.40;99.90
26621;DHT22;14253;44.840;10.444;2024-03-02T03:45:53;10.30;99.90
26621;DHT22;14253;44.840;10.444;2024-03-02T03:48:19;10.30;99.90
26621;DHT22;14253;44.840;10.444;2024-03-02T03:50:45;10.30;99.90
26621;DHT22;14253;44.840;10.444;2024-03-02T03:53:12;10.30;99.90
26621;DHT22;14253;44.840;10.444;2024-03-02T03:55:39;10.30;99.90
26621;DHT22;14253;44.840;10.444;2024-03-02T03:58:05;10.30;99.90
26621;DHT22;14253;44.840;10.444;2024-03-02T04:00:31;10.30;99.90
26621;DHT22;14253;44.840;10.444;2024-03-02T04:02:57;10.30;99.90
26621;DHT22;14253;44.840;10.444;2024-03-02T04:05:23;10.30;99.90
26621;DHT22;14253;44.840;10.444;2024-03-02T04:07:49;10.30;99.90
26621;DHT22;14253;44.840;10.444;2024-03-02T04:10:15;10.30;99.90
26621;DHT22;14253;44.840;10.444;2024-03-02T04:12:42;10.30;99.90
26621;DHT22;14253;44.840;10.444;2024-03-02T04:15:08;10.20;99.90
26621;DHT22;14253;44.840;10.444;2024-03-02T04:17:34;10.30;99.90
26621;DHT22;14253;44.840;10.444;2024-03-02T04:20:01;10.30;99.90
26621;DHT22;14253;44.840;10.444;2024-03-02T04:22:27;10.30;99.90
26621;DHT22;14253;44.840;10.444;2024-03-02T04:24:53;10.30;99.90
26621;DHT22;14253;44.840;10.444;2024-03-02T04:27:20;10.20;99.90
26621;DHT22;14253;44.840;10.444;2024-03-02T04:29:46;10.20;99.90
26621;DHT22;14253;44.840;10.444;2024-03-02T04:32:12;10.30;99.90
26621;DHT22;14253;44.840;10.444;2024-03-02T04:34:38;10.20;99.90
26621;DHT22;14253;44.840;10.444;2024-03-02T04:37:04;10.20;99.90
26621;DHT22;14253;44.840;10.444;2024-03-02T04:39:29;10.20;99.90
26621;DHT22;14253;44.840;10.444;2024-03-02T04:41:55;10.30;99.90
26621;DHT22;14253;44.840;10.444;2024-03-02T04:44:21;10.30;99.90
26621;DHT22;14253;44.840;10.444;2024-03-02T04:46:47;10.20;99.90
26621;DHT22;14253;44.840;10.444;2024-03-02T04:49:13;10.20;99.90
26621;DHT22;14253;44.840;10.444;2024-03-02T04:51:39;10.20;99.90
26621;DHT22;14253;44.840;10.444;2024-03-02T04:54:05;10.20;99.90
26621;DHT22;14253;44.840;10.444;2024-03-02T04:56:31;10.20;99.90
26621;DHT22;14253;44.840;10.444;2024-03-02T04:58:57;10.20;99.90
26621;DHT22;14253;44.840;10.444;2024-03-02T05:01:23;10.20;99.90
26621;DHT22;14253;44.840;10.444;2024-03-02T05:03:49;10.20;99.90
26621;DHT22;14253;44.840;10.444;2024-03-02T05:06:14;10.20;99.90
26621;DHT22;14253;44.840;10.444;2024-03-02T05:08:40;10.20;99.90
26621;DHT22;14253;44.840;10.444;2024-03-02T05:11:06;10.20;99.90
26621;DHT22;14253;44.840;10.444;2024-03-02T05:13:51;10.20;99.90
26621;DHT22;14253;44.840;10.444;2024-03-02T05:16:16;10.20;99.90
26621;DHT22;14253;44.840;10.444;2024-03-02T05:18:42;10.20;99.90
26621;DHT22;14253;44.840;10.444;2024-03-02T05:21:08;10.20;99.90
26621;DHT22;14253;44.840;10.444;2024-03-02T05:23:34;10.20;99.90
26621;DHT22;14253;44.840;10.444;2024-03-02T05:26:00;10.20;99.90
26621;DHT22;14253;44.840;10.444;2024-03-02T05:28:26;10.20;99.90
26621;DHT22;14253;44.840;10.444;2024-03-02T05:30:52;10.20;99.90
26621;DHT22;14253;44.840;10.444;2024-03-02T05:33:18;10.20;99.90
26621;DHT22;14253;44.840;10.444;2024-03-02T05:35:44;10.20;99.90
26621;DHT22;14253;44.840;10.444;2024-03-02T05:38:10;10.20;99.90
26621;DHT22;14253;44.840;10.444;2024-03-02T05:40:36;10.20;99.90
26621;DHT22;14253;44.840;10.444;2024-03-02T05:43:02;10.20;99.90
26621;DHT22;14253;44.840;10.444;2024-03-02T05:45:28;10.20;99.90
26621;DHT22;14253;44.840;10.444;2024-03-02T05:47:54;10.20;99.90
26621;DHT22;14253;44.840;10.444;2024-03-02T05:50:20;10.20;99.90
26621;DHT22;14253;44.840;10.444;2024-03-02T05:52:46;10.10;99.90
26621;DHT22;14253;44.840;10.444;2024-03-02T05:55:12;10.10;99.90
26621;DHT22;14253;44.840;10.444;2024-03-02T05:57:38;10.20;99.90
26621;DHT22;14253;44.840;10.444;2024-03-02T06:00:10;10.20;99.90
26621;DHT22;14253;44.840;10.444;2024-03-02T06:02:40;10.20;99.90
26621;DHT22;14253;44.840;10.444;2024-03-02T06:05:06;10.20;99.90
26621;DHT22;14253;44.840;10.444;2024-03-02T06:07:35;10.20;99.90
26621;DHT22;14253;44.840;10.444;2024-03-02T06:10:01;10.20;99.90
26621;DHT22;14253;44.840;10.444;2024-03-02T06:12:27;10.20;99.90
26621;DHT22;14253;44.840;10.444;2024-03-02T06:14:53;10.20;99.90
26621;DHT22;14253;44.840;10.444;2024-03-02T06:17:18;10.20;99.90
26621;DHT22;14253;44.840;10.444;2024-03-02T06:19:45;10.20;99.90
26621;DHT22;14253;44.840;10.444;2024-03-02T06:22:12;10.20;99.90
26621;DHT22;14253;44.840;10.444;2024-03-02T06:24:38;10.20;99.90
26621;DHT22;14253;44.840;10.444;2024-03-02T06:27:04;10.20;99.90
26621;DHT22;14253;44.840;10.444;2024-03-02T06:29:33;10.20;99.90
26621;DHT22;14253;44.840;10.444;2024-03-02T06:31:59;10.20;99.90
26621;DHT22;14253;44.840;10.444;2024-03-02T06:34:25;10.20;99.90
26621;DHT22;14253;44.840;10.444;2024-03-02T06:36:51;10.20;99.90
26621;DHT22;14253;44.840;10.444;2024-03-02T06:39:17;10.30;99.90
26621;DHT22;14253;44.840;10.444;2024-03-02T06:41:43;10.20;99.90
26621;DHT22;14253;44.840;10.444;2024-03-02T06:44:09;10.20;99.90
26621;DHT22;14253;44.840;10.444;2024-03-02T06:46:35;10.30;99.90
26621;DHT22;14253;44.840;10.444;2024-03-02T06:49:01;10.30;99.90
26621;DHT22;14253;44.840;10.444;2024-03-02T06:51:28;10.30;99.90
26621;DHT22;14253;44.840;10.444;2024-03-02T06:53:54;10.20;99.90
26621;DHT22;14253;44.840;10.444;2024-03-02T06:56:21;10.30;99.90
26621;DHT22;14253;44.840;10.444;2024-03-02T06:58:47;10.30;99.90
26621;DHT22;14253;44.840;10.444;2024-03-02T07:01:13;10.30;99.90
26621;DHT22;14253;44.840;10.444;2024-03-02T07:03:38;10.30;99.90
26621;DHT22;14253;44.840;10.444;2024-03-02T07:06:05;10.40;99.90
26621;DHT22;14253;44.840;10.444;2024-03-02T07:08:31;10.40;99.90
26621;DHT22;14253;44.840;10.444;2024-03-02T07:10:57;10.40;99.90
26621;DHT22;14253;44.840;10.444;2024-03-02T07:13:23;10.40;99.90
26621;DHT22;14253;44.840;10.444;2024-03-02T07:15:49;10.40;99.90
26621;DHT22;14253;44.840;10.444;2024-03-02T07:18:30;10.40;99.90
26621;DHT22;14253;44.840;10.444;2024-03-02T07:20:57;10.40;99.90
26621;DHT22;14253;44.840;10.444;2024-03-02T07:23:27;10.50;99.90
26621;DHT22;14253;44.840;10.444;2024-03-02T07:25:53;10.50;99.90
26621;DHT22;14253;44.840;10.444;2024-03-02T07:28:23;10.50;99.90
26621;DHT22;14253;44.840;10.444;2024-03-02T07:31:02;10.50;99.90
26621;DHT22;14253;44.840;10.444;2024-03-02T07:33:28;10.60;99.90
26621;DHT22;14253;44.840;10.444;2024-03-02T07:35:54;10.50;99.90
26621;DHT22;14253;44.840;10.444;2024-03-02T07:38:25;10.50;99.90
26621;DHT22;14253;44.840;10.444;2024-03-02T07:40:51;10.60;99.90
26621;DHT22;14253;44.840;10.444;2024-03-02T07:43:18;10.60;99.90
26621;DHT22;14253;44.840;10.444;2024-03-02T07:45:45;10.60;99.90
26621;DHT22;14253;44.840;10.444;2024-03-02T07:48:11;10.60;99.90
26621;DHT22;14253;44.840;10.444;2024-03-02T07:50:37;10.60;99.90
26621;DHT22;14253;44.840;10.444;2024-03-02T07:53:05;10.60;99.90
26621;DHT22;14253;44.840;10.444;2024-03-02T07:55:31;10.60;99.90
26621;DHT22;14253;44.840;10.444;2024-03-02T07:57:57;10.60;99.90
26621;DHT22;14253;44.840;10.444;2024-03-02T08:00:23;10.60;99.90
26621;DHT22;14253;44.840;10.444;2024-03-02T08:02:52;10.60;99.90
26621;DHT22;14253;44.840;10.444;2024-03-02T08:05:18;10.60;99.90
26621;DHT22;14253;44.840;10.444;2024-03-02T08:07:45;10.60;99.90
26621;DHT22;14253;44.840;10.444;2024-03-02T08:10:11;10.60;99.90
26621;DHT22;14253;44.840;10.444;2024-03-02T08:12:37;10.60;99.90
26621;DHT22;14253;44.840;10.444;2024-03-02T08:15:04;10.60;99.90
26621;DHT22;14253;44.840;10.444;2024-03-02T08:17:30;10.60;99.90
26621;DHT22;14253;44.840;10.444;2024-03-02T08:19:56;10.70;99.90
26621;DHT22;14253;44.840;10.444;2024-03-02T08:22:23;10.60;99.90
26621;DHT22;14253;44.840;10.444;2024-03-02T08:24:51;10.60;99.90
26621;DHT22;14253;44.840;10.444;2024-03-02T08:27:17;10.70;99.90
26621;DHT22;14253;44.840;10.444;2024-03-02T08:29:43;10.70;99.90
26621;DHT22;14253;44.840;10.444;2024-03-02T08:32:09;10.70;99.90
26621;DHT22;14253;44.840;10.444;2024-03-02T08:34:35;10.80;99.90
26621;DHT22;14253;44.840;10.444;2024-03-02T08:37:04;10.80;99.90
26621;DHT22;14253;44.840;10.444;2024-03-02T08:39:30;10.70;99.90
26621;DHT22;14253;44.840;10.444;2024-03-02T08:41:56;10.80;99.90
26621;DHT22;14253;44.840;10.444;2024-03-02T08:44:23;10.80;99.90
26621;DHT22;14253;44.840;10.444;2024-03-02T08:46:50;10.80;99.90
26621;DHT22;14253;44.840;10.444;2024-03-02T08:49:16;10.90;99.90
26621;DHT22;14253;44.840;10.444;2024-03-02T08:51:42;10.90;99.90
26621;DHT22;14253;44.840;10.444;2024-03-02T08:54:08;10.90;99.90
26621;DHT22;14253;44.840;10.444;2024-03-02T08:56:35;11.00;99.90
26621;DHT22;14253;44.840;10.444;2024-03-02T08:59:01;11.00;99.90
26621;DHT22;14253;44.840;10.444;2024-03-02T09:01:27;11.00;99.90
26621;DHT22;14253;44.840;10.444;2024-03-02T09:03:53;11.00;99.90
26621;DHT22;14253;44.840;10.444;2024-03-02T09:06:19;11.00;99.90
26621;DHT22;14253;44.840;10.444;2024-03-02T09:08:47;11.10;99.90
26621;DHT22;14253;44.840;10.444;2024-03-02T09:11:13;11.10;99.90
26621;DHT22;14253;44.840;10.444;2024-03-02T09:13:40;11.00;99.90
26621;DHT22;14253;44.840;10.444;2024-03-02T09:16:06;11.00;99.90
26621;DHT22;14253;44.840;10.444;2024-03-02T09:18:32;11.00;99.90
26621;DHT22;14253;44.840;10.444;2024-03-02T09:20:58;11.00;99.90
26621;DHT22;14253;44.840;10.444;2024-03-02T09:23:24;11.00;99.90
26621;DHT22;14253;44.840;10.444;2024-03-02T09:25:50;11.00;99.90
26621;DHT22;14253;44.840;10.444;2024-03-02T09:28:16;11.10;99.90
26621;DHT22;14253;44.840;10.444;2024-03-02T09:30:42;11.10;99.90
26621;DHT22;14253;44.840;10.444;2024-03-02T09:33:08;11.10;99.90
26621;DHT22;14253;44.840;10.444;2024-03-02T09:35:34;11.10;99.90
26621;DHT22;14253;44.840;10.444;2024-03-02T09:38:00;11.10;99.90
26621;DHT22;14253;44.840;10.444;2024-03-02T09:40:26;11.10;99.90
26621;DHT22;14253;44.840;10.444;2024-03-02T09:42:52;11.10;99.90
26621;DHT22;14253;44.840;10.444;2024-03-02T09:45:23;11.10;99.90
26621;DHT22;14253;44.840;10.444;2024-03-02T09:47:50;11.20;99.90
26621;DHT22;14253;44.840;10.444;2024-03-02T09:50:16;11.30;99.90
26621;DHT22;14253;44.840;10.444;2024-03-02T09:52:42;11.30;99.90
26621;DHT22;14253;44.840;10.444;2024-03-02T09:55:09;11.30;99.90
26621;DHT22;14253;44.840;10.444;2024-03-02T09:57:35;11.40;99.90
26621;DHT22;14253;44.840;10.444;2024-03-02T10:00:02;11.40;99.90
26621;DHT22;14253;44.840;10.444;2024-03-02T10:02:30;11.40;99.90
26621;DHT22;14253;44.840;10.444;2024-03-02T10:04:56;11.40;99.90
26621;DHT22;14253;44.840;10.444;2024-03-02T10:07:25;11.40;99.90
26621;DHT22;14253;44.840;10.444;2024-03-02T10:09:51;11.40;99.90
26621;DHT22;14253;44.840;10.444;2024-03-02T10:12:18;11.50;99.90
26621;DHT22;14253;44.840;10.444;2024-03-02T10:14:45;11.50;99.90
26621;DHT22;14253;44.840;10.444;2024-03-02T10:17:13;11.50;99.90
26621;DHT22;14253;44.840;10.444;2024-03-02T10:19:39;11.60;99.90
26621;DHT22;14253;44.840;10.444;2024-03-02T10:22:07;11.70;99.90
26621;DHT22;14253;44.840;10.444;2024-03-02T10:24:43;11.70;99.90
26621;DHT22;14253;44.840;10.444;2024-03-02T10:27:17;11.70;99.90
26621;DHT22;14253;44.840;10.444;2024-03-02T10:29:46;11.80;99.90
26621;DHT22;14253;44.840;10.444;2024-03-02T10:32:13;11.90;99.90
26621;DHT22;14253;44.840;10.444;2024-03-02T10:34:43;11.90;99.90
26621;DHT22;14253;44.840;10.444;2024-03-02T10:37:14;12.00;99.90
26621;DHT22;14253;44.840;10.444;2024-03-02T10:39:40;12.10;99.90
26621;DHT22;14253;44.840;10.444;2024-03-02T10:42:07;12.20;99.90
26621;DHT22;14253;44.840;10.444;2024-03-02T10:44:33;12.40;99.90
26621;DHT22;14253;44.840;10.444;2024-03-02T10:47:02;12.50;99.90
26621;DHT22;14253;44.840;10.444;2024-03-02T10:49:30;12.50;99.90
26621;DHT22;14253;44.840;10.444;2024-03-02T10:51:58;12.50;99.90
26621;DHT22;14253;44.840;10.444;2024-03-02T10:54:31;12.60;99.90
26621;DHT22;14253;44.840;10.444;2024-03-02T10:57:17;12.60;99.90
26621;DHT22;14253;44.840;10.444;2024-03-02T11:00:02;12.60;99.90
26621;DHT22;14253;44.840;10.444;2024-03-02T11:02:30;12.60;99.90
26621;DHT22;14253;44.840;10.444;2024-03-02T11:04:56;12.70;99.90
26621;DHT22;14253;44.840;10.444;2024-03-02T11:07:25;12.70;99.90
26621;DHT22;14253;44.840;10.444;2024-03-02T11:10:00;12.80;99.90
26621;DHT22;14253;44.840;10.444;2024-03-02T11:12:44;12.80;99.90
26621;DHT22;14253;44.840;10.444;2024-03-02T11:15:17;12.80;99.90
26621;DHT22;14253;44.840;10.444;2024-03-02T11:17:47;12.80;99.90
26621;DHT22;14253;44.840;10.444;2024-03-02T11:20:14;12.90;99.90
26621;DHT22;14253;44.840;10.444;2024-03-02T11:22:41;12.90;99.90
26621;DHT22;14253;44.840;10.444;2024-03-02T11:25:26;12.90;99.90
26621;DHT22;14253;44.840;10.444;2024-03-02T11:35:26;13.00;99.90
26621;DHT22;14253;44.840;10.444;2024-03-02T11:37:52;13.20;99.90
26621;DHT22;14253;44.840;10.444;2024-03-02T11:40:31;13.40;99.90
26621;DHT22;14253;44.840;10.444;2024-03-02T11:42:59;13.50;99.90
26621;DHT22;14253;44.840;10.444;2024-03-02T11:45:27;13.60;99.90
26621;DHT22;14253;44.840;10.444;2024-03-02T11:48:06;13.60;99.90
26621;DHT22;14253;44.840;10.444;2024-03-02T11:53:20;13.40;99.90
26621;DHT22;14253;44.840;10.444;2024-03-02T11:55:49;13.50;99.90
26621;DHT22;14253;44.840;10.444;2024-03-02T11:58:16;13.40;99.90
26621;DHT22;14253;44.840;10.444;2024-03-02T12:00:54;13.50;99.90
26621;DHT22;14253;44.840;10.444;2024-03-02T12:03:29;13.50;99.90
26621;DHT22;14253;44.840;10.444;2024-03-02T12:05:55;13.60;99.90
26621;DHT22;14253;44.840;10.444;2024-03-02T12:08:22;13.50;99.90
26621;DHT22;14253;44.840;10.444;2024-03-02T12:10:59;13.50;99.90
26621;DHT22;14253;44.840;10.444;2024-03-02T12:13:55;13.60;99.90
26621;DHT22;14253;44.840;10.444;2024-03-02T12:16:24;13.60;99.90
26621;DHT22;14253;44.840;10.444;2024-03-02T12:18:50;13.60;99.90
26621;DHT22;14253;44.840;10.444;2024-03-02T12:21:16;13.60;99.90
26621;DHT22;14253;44.840;10.444;2024-03-02T12:23:43;13.60;99.90
26621;DHT22;14253;44.840;10.444;2024-03-02T12:26:09;13.50;99.90
26621;DHT22;14253;44.840;10.444;2024-03-02T12:28:35;13.50;99.90
26621;DHT22;14253;44.840;10.444;2024-03-02T12:31:01;13.50;99.90
26621;DHT22;14253;44.840;10.444;2024-03-02T12:33:27;13.50;99.90
26621;DHT22;14253;44.840;10.444;2024-03-02T12:35:54;13.50;99.90
26621;DHT22;14253;44.840;10.444;2024-03-02T12:38:22;13.60;99.90
26621;DHT22;14253;44.840;10.444;2024-03-02T12:40:54;13.60;99.90
26621;DHT22;14253;44.840;10.444;2024-03-02T12:43:22;13.70;99.90
26621;DHT22;14253;44.840;10.444;2024-03-02T12:45:49;13.70;99.90
26621;DHT22;14253;44.840;10.444;2024-03-02T12:48:15;13.70;99.90
26621;DHT22;14253;44.840;10.444;2024-03-02T12:50:41;13.80;99.90
26621;DHT22;14253;44.840;10.444;2024-03-02T12:53:07;13.90;99.90
26621;DHT22;14253;44.840;10.444;2024-03-02T12:55:33;13.80;99.90
26621;DHT22;14253;44.840;10.444;2024-03-02T12:58:00;13.80;99.90
26621;DHT22;14253;44.840;10.444;2024-03-02T13:00:28;13.80;99.90
26621;DHT22;14253;44.840;10.444;2024-03-02T13:02:57;13.80;99.90
26621;DHT22;14253;44.840;10.444;2024-03-02T13:05:29;13.80;99.90
26621;DHT22;14253;44.840;10.444;2024-03-02T13:07:55;13.60;99.90
26621;DHT22;14253;44.840;10.444;2024-03-02T13:12:52;13.40;99.90
26621;DHT22;14253;44.840;10.444;2024-03-02T13:15:18;13.30;99.90
26621;DHT22;14253;44.840;10.444;2024-03-02T13:17:45;13.20;99.90
26621;DHT22;14253;44.840;10.444;2024-03-02T13:20:15;13.20;99.90
26621;DHT22;14253;44.840;10.444;2024-03-02T13:22:44;13.20;99.90
26621;DHT22;14253;44.840;10.444;2024-03-02T13:25:10;13.20;99.90
26621;DHT22;14253;44.840;10.444;2024-03-02T13:27:36;13.10;99.90
26621;DHT22;14253;44.840;10.444;2024-03-02T13:30:03;13.20;99.90
26621;DHT22;14253;44.840;10.444;2024-03-02T13:32:31;13.20;99.90
26621;DHT22;14253;44.840;10.444;2024-03-02T13:34:58;13.30;99.90
26621;DHT22;14253;44.840;10.444;2024-03-02T13:37:24;13.40;99.90
26621;DHT22;14253;44.840;10.444;2024-03-02T13:39:50;13.70;99.90
26621;DHT22;14253;44.840;10.444;2024-03-02T13:42:16;14.10;99.90
26621;DHT22;14253;44.840;10.444;2024-03-02T13:44:46;14.50;99.90
26621;DHT22;14253;44.840;10.444;2024-03-02T13:47:13;14.80;99.90
26621;DHT22;14253;44.840;10.444;2024-03-02T13:49:39;14.90;99.90
26621;DHT22;14253;44.840;10.444;2024-03-02T13:52:11;15.10;99.90
26621;DHT22;14253;44.840;10.444;2024-03-02T13:54:40;15.10;99.90
26621;DHT22;14253;44.840;10.444;2024-03-02T13:57:08;15.10;99.90
26621;DHT22;14253;44.840;10.444;2024-03-02T13:59:34;15.20;99.90
26621;DHT22;14253;44.840;10.444;2024-03-02T14:02:02;15.10;99.90
26621;DHT22;14253;44.840;10.444;2024-03-02T14:04:33;15.00;99.90
26621;DHT22;14253;44.840;10.444;2024-03-02T14:07:00;15.20;99.90
26621;DHT22;14253;44.840;10.444;2024-03-02T14:09:27;15.40;99.90
26621;DHT22;14253;44.840;10.444;2024-03-02T14:11:56;15.70;99.90
26621;DHT22;14253;44.840;10.444;2024-03-02T14:14:22;15.60;99.90
26621;DHT22;14253;44.840;10.444;2024-03-02T14:16:49;15.50;99.90
26621;DHT22;14253;44.840;10.444;2024-03-02T14:19:15;15.30;99.90
26621;DHT22;14253;44.840;10.444;2024-03-02T14:21:41;15.00;99.90
26621;DHT22;14253;44.840;10.444;2024-03-02T14:24:07;14.80;99.90
26621;DHT22;14253;44.840;10.444;2024-03-02T14:26:33;14.60;99.90
26621;DHT22;14253;44.840;10.444;2024-03-02T14:28:59;14.60;99.90
26621;DHT22;14253;44.840;10.444;2024-03-02T14:31:28;14.40;99.90
26621;DHT22;14253;44.840;10.444;2024-03-02T14:33:54;14.30;99.90
26621;DHT22;14253;44.840;10.444;2024-03-02T14:36:21;14.30;99.90
26621;DHT22;14253;44.840;10.444;2024-03-02T14:38:47;14.30;99.90
26621;DHT22;14253;44.840;10.444;2024-03-02T14:41:13;14.40;99.90
26621;DHT22;14253;44.840;10.444;2024-03-02T14:43:39;14.40;99.90
26621;DHT22;14253;44.840;10.444;2024-03-02T14:46:06;14.30;99.90
26621;DHT22;14253;44.840;10.444;2024-03-02T14:48:38;14.30;99.90
26621;DHT22;14253;44.840;10.444;2024-03-02T14:51:04;14.20;99.90
26621;DHT22;14253;44.840;10.444;2024-03-02T14:53:30;14.10;99.90
26621;DHT22;14253;44.840;10.444;2024-03-02T14:55:56;14.00;99.90
26621;DHT22;14253;44.840;10.444;2024-03-02T14:58:23;13.90;99.90
26621;DHT22;14253;44.840;10.444;2024-03-02T15:00:49;14.00;99.90
26621;DHT22;14253;44.840;10.444;2024-03-02T15:03:15;14.10;99.90
26621;DHT22;14253;44.840;10.444;2024-03-02T15:05:41;14.20;99.90
26621;DHT22;14253;44.840;10.444;2024-03-02T15:08:07;14.10;99.90
26621;DHT22;14253;44.840;10.444;2024-03-02T15:10:33;13.90;99.90
26621;DHT22;14253;44.840;10.444;2024-03-02T15:12:59;13.80;99.90
26621;DHT22;14253;44.840;10.444;2024-03-02T15:15:25;13.70;99.90
26621;DHT22;14253;44.840;10.444;2024-03-02T15:17:51;13.60;99.90
26621;DHT22;14253;44.840;10.444;2024-03-02T15:20:18;13.50;99.90
26621;DHT22;14253;44.840;10.444;2024-03-02T15:22:46;13.60;99.90
26621;DHT22;14253;44.840;10.444;2024-03-02T15:25:12;13.50;99.90
26621;DHT22;14253;44.840;10.444;2024-03-02T15:27:39;13.50;99.90
26621;DHT22;14253;44.840;10.444;2024-03-02T15:30:06;13.60;99.90